sensor_id;sensor_type;location;lat;lon;timestamp;P1;durP1;ratioP1;P2;durP2;ratioP2
49043;SDS011;34860;48.066;14.124;2023-12-20T00:01:11;3.13;;;0.65;;
49043;SDS011;34860;48.066;14.124;2023-12-20T00:03:59;8.90;;;0.80;;
49043;SDS011;34860;48.066;14.124;2023-12-20T00:06:49;2.58;;;1.33;;
49043;SDS011;34860;48.066;14.124;2023-12-20T00:09:40;0.75;;;0.43;;
49043;SDS011;34860;48.066;14.124;2023-12-20T00:12:28;0.93;;;0.60;;
49043;SDS011;34860;48.066;14.124;2023-12-20T00:15:18;1.27;;;0.70;;
49043;SDS011;34860;48.066;14.124;2023-12-20T00:18:06;1.60;;;0.70;;
49043;SDS011;34860;48.066;14.124;2023-12-20T00:20:54;3.55;;;1.10;;
49043;SDS011;34860;48.066;14.124;2023-12-20T00:23:42;9.27;;;0.77;;
49043;SDS011;34860;48.066;14.124;2023-12-20T00:26:32;1.55;;;0.55;;
49043;SDS011;34860;48.066;14.124;2023-12-20T00:29:26;2.28;;;0.77;;
49043;SDS011;34860;48.066;14.124;2023-12-20T00:32:15;3.97;;;1.10;;
49043;SDS011;34860;48.066;14.124;2023-12-20T00:35:03;2.38;;;1.25;;
49043;SDS011;34860;48.066;14.124;2023-12-20T00:37:52;2.80;;;0.98;;
49043;SDS011;34860;48.066;14.124;2023-12-20T00:40:41;2.38;;;0.90;;
49043;SDS011;34860;48.066;14.124;2023-12-20T00:43:29;4.68;;;0.70;;
49043;SDS011;34860;48.066;14.124;2023-12-20T00:46:18;0.60;;;0.35;;
49043;SDS011;34860;48.066;14.124;2023-12-20T00:49:07;1.38;;;0.40;;
49043;SDS011;34860;48.066;14.124;2023-12-20T00:51:56;0.80;;;0.40;;
49043;SDS011;34860;48.066;14.124;2023-12-20T00:54:44;1.40;;;0.30;;
49043;SDS011;34860;48.066;14.124;2023-12-20T00:57:35;1.85;;;0.60;;
49043;SDS011;34860;48.066;14.124;2023-12-20T01:00:26;0.40;;;0.10;;
49043;SDS011;34860;48.066;14.124;2023-12-20T01:03:15;1.95;;;0.30;;
49043;SDS011;34860;48.066;14.124;2023-12-20T01:06:09;0.40;;;0.20;;
49043;SDS011;34860;48.066;14.124;2023-12-20T01:08:57;0.25;;;0.20;;
49043;SDS011;34860;48.066;14.124;2023-12-20T01:11:48;1.65;;;0.30;;
49043;SDS011;34860;48.066;14.124;2023-12-20T01:14:36;0.22;;;0.15;;
49043;SDS011;34860;48.066;14.124;2023-12-20T01:17:26;2.08;;;0.20;;
49043;SDS011;34860;48.066;14.124;2023-12-20T01:20:14;1.70;;;0.47;;
49043;SDS011;34860;48.066;14.124;2023-12-20T01:23:05;1.48;;;0.38;;
49043;SDS011;34860;48.066;14.124;2023-12-20T01:25:54;0.38;;;0.20;;
49043;SDS011;34860;48.066;14.124;2023-12-20T01:28:42;2.33;;;0.20;;
49043;SDS011;34860;48.066;14.124;2023-12-20T01:31:31;0.98;;;0.30;;
49043;SDS011;34860;48.066;14.124;2023-12-20T01:34:19;0.73;;;0.40;;
49043;SDS011;34860;48.066;14.124;2023-12-20T01:37:08;1.17;;;0.20;;
49043;SDS011;34860;48.066;14.124;2023-12-20T01:40:00;0.25;;;0.17;;
49043;SDS011;34860;48.066;14.124;2023-12-20T01:42:57;0.35;;;0.30;;
49043;SDS011;34860;48.066;14.124;2023-12-20T01:45:46;1.55;;;0.20;;
49043;SDS011;34860;48.066;14.124;2023-12-20T01:48:35;1.30;;;0.30;;
49043;SDS011;34860;48.066;14.124;2023-12-20T01:51:23;0.77;;;0.30;;
49043;SDS011;34860;48.066;14.124;2023-12-20T01:54:13;0.25;;;0.10;;
49043;SDS011;34860;48.066;14.124;2023-12-20T01:57:04;1.58;;;0.32;;
49043;SDS011;34860;48.066;14.124;2023-12-20T01:59:55;0.95;;;0.30;;
49043;SDS011;34860;48.066;14.124;2023-12-20T02:02:44;0.60;;;0.30;;
49043;SDS011;34860;48.066;14.124;2023-12-20T02:05:33;0.45;;;0.20;;
49043;SDS011;34860;48.066;14.124;2023-12-20T02:08:27;0.77;;;0.35;;
49043;SDS011;34860;48.066;14.124;2023-12-20T02:11:18;1.80;;;0.50;;
49043;SDS011;34860;48.066;14.124;2023-12-20T02:14:08;1.60;;;0.20;;
49043;SDS011;34860;48.066;14.124;2023-12-20T02:16:59;3.92;;;0.75;;
49043;SDS011;34860;48.066;14.124;2023-12-20T02:19:49;14.73;;;4.20;;
49043;SDS011;34860;48.066;14.124;2023-12-20T02:22:42;5.10;;;2.15;;
49043;SDS011;34860;48.066;14.124;2023-12-20T02:25:30;17.70;;;5.90;;
49043;SDS011;34860;48.066;14.124;2023-12-20T02:28:19;27.10;;;7.22;;
49043;SDS011;34860;48.066;14.124;2023-12-20T02:31:09;17.38;;;5.93;;
49043;SDS011;34860;48.066;14.124;2023-12-20T02:33:58;22.75;;;7.28;;
49043;SDS011;34860;48.066;14.124;2023-12-20T02:36:46;13.75;;;6.05;;
49043;SDS011;34860;48.066;14.124;2023-12-20T02:39:36;5.63;;;2.25;;
49043;SDS011;34860;48.066;14.124;2023-12-20T02:42:24;3.92;;;1.27;;
49043;SDS011;34860;48.066;14.124;2023-12-20T02:45:12;3.30;;;1.70;;
49043;SDS011;34860;48.066;14.124;2023-12-20T02:48:05;7.15;;;1.40;;
49043;SDS011;34860;48.066;14.124;2023-12-20T02:50:54;2.13;;;1.02;;
49043;SDS011;34860;48.066;14.124;2023-12-20T02:53:42;2.50;;;1.02;;
49043;SDS011;34860;48.066;14.124;2023-12-20T02:56:33;1.05;;;0.47;;
49043;SDS011;34860;48.066;14.124;2023-12-20T02:59:24;0.90;;;0.40;;
49043;SDS011;34860;48.066;14.124;2023-12-20T03:02:13;0.93;;;0.40;;
49043;SDS011;34860;48.066;14.124;2023-12-20T03:05:04;1.20;;;0.40;;
49043;SDS011;34860;48.066;14.124;2023-12-20T03:07:52;1.00;;;0.50;;
49043;SDS011;34860;48.066;14.124;2023-12-20T03:10:41;0.88;;;0.60;;
49043;SDS011;34860;48.066;14.124;2023-12-20T03:13:32;0.52;;;0.15;;
49043;SDS011;34860;48.066;14.124;2023-12-20T03:16:20;1.58;;;0.43;;
49043;SDS011;34860;48.066;14.124;2023-12-20T03:19:08;1.45;;;0.40;;
49043;SDS011;34860;48.066;14.124;2023-12-20T03:21:56;1.70;;;0.30;;
49043;SDS011;34860;48.066;14.124;2023-12-20T03:24:47;2.92;;;0.50;;
49043;SDS011;34860;48.066;14.124;2023-12-20T03:27:36;1.00;;;0.60;;
49043;SDS011;34860;48.066;14.124;2023-12-20T03:30:29;1.73;;;0.30;;
49043;SDS011;34860;48.066;14.124;2023-12-20T03:33:21;0.35;;;0.20;;
49043;SDS011;34860;48.066;14.124;2023-12-20T03:36:10;1.75;;;0.50;;
49043;SDS011;34860;48.066;14.124;2023-12-20T03:38:58;3.33;;;0.30;;
49043;SDS011;34860;48.066;14.124;2023-12-20T03:41:48;0.85;;;0.38;;
49043;SDS011;34860;48.066;14.124;2023-12-20T03:44:38;2.15;;;0.77;;
49043;SDS011;34860;48.066;14.124;2023-12-20T03:47:28;3.92;;;2.15;;
49043;SDS011;34860;48.066;14.124;2023-12-20T03:50:21;5.80;;;2.85;;
49043;SDS011;34860;48.066;14.124;2023-12-20T03:53:09;10.20;;;3.40;;
49043;SDS011;34860;48.066;14.124;2023-12-20T03:56:01;4.88;;;1.70;;
49043;SDS011;34860;48.066;14.124;2023-12-20T03:58:51;2.80;;;0.85;;
49043;SDS011;34860;48.066;14.124;2023-12-20T04:01:42;2.63;;;0.63;;
49043;SDS011;34860;48.066;14.124;2023-12-20T04:04:32;4.57;;;0.60;;
49043;SDS011;34860;48.066;14.124;2023-12-20T04:07:20;1.20;;;0.63;;
49043;SDS011;34860;48.066;14.124;2023-12-20T04:10:11;0.93;;;0.47;;
49043;SDS011;34860;48.066;14.124;2023-12-20T04:12:59;1.95;;;0.40;;
49043;SDS011;34860;48.066;14.124;2023-12-20T04:15:48;1.23;;;0.30;;
49043;SDS011;34860;48.066;14.124;2023-12-20T04:18:39;63.00;;;15.50;;
49043;SDS011;34860;48.066;14.124;2023-12-20T04:21:29;29.80;;;7.72;;
49043;SDS011;34860;48.066;14.124;2023-12-20T04:24:20;19.63;;;5.22;;
49043;SDS011;34860;48.066;14.124;2023-12-20T04:27:08;18.38;;;3.63;;
49043;SDS011;34860;48.066;14.124;2023-12-20T04:29:57;12.65;;;3.55;;
49043;SDS011;34860;48.066;14.124;2023-12-20T04:32:48;25.08;;;4.85;;
49043;SDS011;34860;48.066;14.124;2023-12-20T04:35:36;12.00;;;3.08;;
49043;SDS011;34860;48.066;14.124;2023-12-20T04:38:28;1.05;;;0.52;;
49043;SDS011;34860;48.066;14.124;2023-12-20T04:41:16;18.15;;;6.25;;
49043;SDS011;34860;48.066;14.124;2023-12-20T04:44:05;14.93;;;3.20;;
49043;SDS011;34860;48.066;14.124;2023-12-20T04:46:54;4.10;;;0.88;;
49043;SDS011;34860;48.066;14.124;2023-12-20T04:49:43;1.45;;;0.40;;
49043;SDS011;34860;48.066;14.124;2023-12-20T04:52:36;4.75;;;0.70;;
49043;SDS011;34860;48.066;14.124;2023-12-20T04:55:28;13.82;;;2.38;;
49043;SDS011;34860;48.066;14.124;2023-12-20T04:58:17;11.45;;;2.67;;
49043;SDS011;34860;48.066;14.124;2023-12-20T05:01:11;16.60;;;2.58;;
49043;SDS011;34860;48.066;14.124;2023-12-20T05:03:59;4.60;;;0.70;;
49043;SDS011;34860;48.066;14.124;2023-12-20T05:06:48;1.95;;;0.30;;
49043;SDS011;34860;48.066;14.124;2023-12-20T05:09:36;0.50;;;0.30;;
49043;SDS011;34860;48.066;14.124;2023-12-20T05:12:26;0.90;;;0.43;;
49043;SDS011;34860;48.066;14.124;2023-12-20T05:15:14;1.48;;;0.40;;
49043;SDS011;34860;48.066;14.124;2023-12-20T05:18:02;1.58;;;0.30;;
49043;SDS011;34860;48.066;14.124;2023-12-20T05:20:52;0.63;;;0.20;;
49043;SDS011;34860;48.066;14.124;2023-12-20T05:23:41;0.75;;;0.32;;
49043;SDS011;34860;48.066;14.124;2023-12-20T05:26:33;1.00;;;0.50;;
49043;SDS011;34860;48.066;14.124;2023-12-20T05:29:22;0.63;;;0.20;;
49043;SDS011;34860;48.066;14.124;2023-12-20T05:32:14;4.47;;;0.43;;
49043;SDS011;34860;48.066;14.124;2023-12-20T05:35:02;4.70;;;1.50;;
49043;SDS011;34860;48.066;14.124;2023-12-20T05:37:51;0.50;;;0.28;;
49043;SDS011;34860;48.066;14.124;2023-12-20T05:40:41;0.28;;;0.17;;
49043;SDS011;34860;48.066;14.124;2023-12-20T05:43:29;0.57;;;0.20;;
49043;SDS011;34860;48.066;14.124;2023-12-20T05:46:19;0.77;;;0.52;;
49043;SDS011;34860;48.066;14.124;2023-12-20T05:49:07;1.20;;;0.10;;
49043;SDS011;34860;48.066;14.124;2023-12-20T05:51:57;1.25;;;0.30;;
49043;SDS011;34860;48.066;14.124;2023-12-20T05:54:45;0.38;;;0.17;;
49043;SDS011;34860;48.066;14.124;2023-12-20T05:57:37;0.85;;;0.30;;
49043;SDS011;34860;48.066;14.124;2023-12-20T06:00:25;2.70;;;0.30;;
49043;SDS011;34860;48.066;14.124;2023-12-20T06:03:16;0.40;;;0.10;;
49043;SDS011;34860;48.066;14.124;2023-12-20T06:06:05;0.80;;;0.10;;
49043;SDS011;34860;48.066;14.124;2023-12-20T06:08:57;1.35;;;0.32;;
49043;SDS011;34860;48.066;14.124;2023-12-20T06:11:45;5.65;;;0.30;;
49043;SDS011;34860;48.066;14.124;2023-12-20T06:14:34;1.70;;;0.60;;
49043;SDS011;34860;48.066;14.124;2023-12-20T06:17:25;0.68;;;0.30;;
49043;SDS011;34860;48.066;14.124;2023-12-20T06:20:15;0.57;;;0.20;;
49043;SDS011;34860;48.066;14.124;2023-12-20T06:23:03;4.78;;;0.57;;
49043;SDS011;34860;48.066;14.124;2023-12-20T06:25:51;1.83;;;0.35;;
49043;SDS011;34860;48.066;14.124;2023-12-20T06:28:44;1.95;;;0.35;;
49043;SDS011;34860;48.066;14.124;2023-12-20T06:31:32;8.48;;;0.32;;
49043;SDS011;34860;48.066;14.124;2023-12-20T06:34:20;1.23;;;0.38;;
49043;SDS011;34860;48.066;14.124;2023-12-20T06:37:10;3.15;;;0.10;;
49043;SDS011;34860;48.066;14.124;2023-12-20T06:40:02;1.92;;;0.10;;
49043;SDS011;34860;48.066;14.124;2023-12-20T06:42:50;1.63;;;0.40;;
49043;SDS011;34860;48.066;14.124;2023-12-20T06:45:40;1.15;;;0.20;;
49043;SDS011;34860;48.066;14.124;2023-12-20T06:48:28;0.22;;;0.13;;
49043;SDS011;34860;48.066;14.124;2023-12-20T06:51:19;0.15;;;0.10;;
49043;SDS011;34860;48.066;14.124;2023-12-20T06:54:08;0.20;;;0.10;;
49043;SDS011;34860;48.066;14.124;2023-12-20T06:56:56;5.65;;;1.15;;
49043;SDS011;34860;48.066;14.124;2023-12-20T06:59:45;0.20;;;0.10;;
49043;SDS011;34860;48.066;14.124;2023-12-20T07:02:33;0.20;;;0.10;;
49043;SDS011;34860;48.066;14.124;2023-12-20T07:05:21;2.13;;;0.30;;
49043;SDS011;34860;48.066;14.124;2023-12-20T07:08:09;0.50;;;0.20;;
49043;SDS011;34860;48.066;14.124;2023-12-20T07:11:03;0.40;;;0.10;;
49043;SDS011;34860;48.066;14.124;2023-12-20T07:13:52;0.25;;;0.10;;
49043;SDS011;34860;48.066;14.124;2023-12-20T07:16:41;5.60;;;0.57;;
49043;SDS011;34860;48.066;14.124;2023-12-20T07:19:29;0.90;;;0.28;;
49043;SDS011;34860;48.066;14.124;2023-12-20T07:22:17;0.45;;;0.30;;
49043;SDS011;34860;48.066;14.124;2023-12-20T07:25:06;0.93;;;0.05;;
49043;SDS011;34860;48.066;14.124;2023-12-20T07:28:02;0.90;;;0.30;;
49043;SDS011;34860;48.066;14.124;2023-12-20T07:30:51;0.30;;;0.13;;
49043;SDS011;34860;48.066;14.124;2023-12-20T07:33:39;0.17;;;0.10;;
49043;SDS011;34860;48.066;14.124;2023-12-20T07:36:27;0.68;;;0.40;;
49043;SDS011;34860;48.066;14.124;2023-12-20T07:39:15;0.10;;;0.10;;
49043;SDS011;34860;48.066;14.124;2023-12-20T07:42:04;0.80;;;0.17;;
49043;SDS011;34860;48.066;14.124;2023-12-20T07:44:56;1.38;;;0.40;;
49043;SDS011;34860;48.066;14.124;2023-12-20T07:47:44;1.38;;;0.35;;
49043;SDS011;34860;48.066;14.124;2023-12-20T07:50:32;0.80;;;0.30;;
49043;SDS011;34860;48.066;14.124;2023-12-20T07:53:20;0.85;;;0.35;;
49043;SDS011;34860;48.066;14.124;2023-12-20T07:56:15;0.85;;;0.30;;
49043;SDS011;34860;48.066;14.124;2023-12-20T07:59:04;1.05;;;0.30;;
49043;SDS011;34860;48.066;14.124;2023-12-20T08:01:59;0.95;;;0.25;;
49043;SDS011;34860;48.066;14.124;2023-12-20T08:04:47;0.65;;;0.10;;
49043;SDS011;34860;48.066;14.124;2023-12-20T08:07:35;0.20;;;0.15;;
49043;SDS011;34860;48.066;14.124;2023-12-20T08:10:23;3.60;;;0.50;;
49043;SDS011;34860;48.066;14.124;2023-12-20T08:13:12;0.55;;;0.25;;
49043;SDS011;34860;48.066;14.124;2023-12-20T08:16:00;1.73;;;0.40;;
49043;SDS011;34860;48.066;14.124;2023-12-20T08:18:52;0.50;;;0.20;;
49043;SDS011;34860;48.066;14.124;2023-12-20T08:21:40;0.55;;;0.20;;
49043;SDS011;34860;48.066;14.124;2023-12-20T08:24:30;0.35;;;0.20;;
49043;SDS011;34860;48.066;14.124;2023-12-20T08:27:18;0.93;;;0.30;;
49043;SDS011;34860;48.066;14.124;2023-12-20T08:30:08;0.80;;;0.15;;
49043;SDS011;34860;48.066;14.124;2023-12-20T08:32:59;0.40;;;0.20;;
49043;SDS011;34860;48.066;14.124;2023-12-20T08:35:49;0.52;;;0.22;;
49043;SDS011;34860;48.066;14.124;2023-12-20T08:38:41;0.57;;;0.20;;
49043;SDS011;34860;48.066;14.124;2023-12-20T08:41:29;0.05;;;0.00;;
49043;SDS011;34860;48.066;14.124;2023-12-20T08:44:19;1.95;;;0.15;;
49043;SDS011;34860;48.066;14.124;2023-12-20T08:47:08;1.85;;;0.30;;
49043;SDS011;34860;48.066;14.124;2023-12-20T08:50:00;2.58;;;0.50;;
49043;SDS011;34860;48.066;14.124;2023-12-20T08:52:51;0.52;;;0.25;;
49043;SDS011;34860;48.066;14.124;2023-12-20T08:55:41;0.20;;;0.10;;
49043;SDS011;34860;48.066;14.124;2023-12-20T08:58:30;0.45;;;0.20;;
49043;SDS011;34860;48.066;14.124;2023-12-20T09:01:18;1.65;;;0.45;;
49043;SDS011;34860;48.066;14.124;2023-12-20T09:04:06;0.40;;;0.17;;
49043;SDS011;34860;48.066;14.124;2023-12-20T09:06:54;2.63;;;0.38;;
49043;SDS011;34860;48.066;14.124;2023-12-20T09:09:44;1.30;;;0.30;;
49043;SDS011;34860;48.066;14.124;2023-12-20T09:12:33;0.17;;;0.10;;
49043;SDS011;34860;48.066;14.124;2023-12-20T09:15:22;0.45;;;0.20;;
49043;SDS011;34860;48.066;14.124;2023-12-20T09:18:10;5.05;;;0.43;;
49043;SDS011;34860;48.066;14.124;2023-12-20T09:20:58;6.22;;;0.20;;
49043;SDS011;34860;48.066;14.124;2023-12-20T09:23:50;0.20;;;0.10;;
49043;SDS011;34860;48.066;14.124;2023-12-20T09:26:42;0.10;;;0.10;;
49043;SDS011;34860;48.066;14.124;2023-12-20T09:29:31;0.08;;;0.08;;
49043;SDS011;34860;48.066;14.124;2023-12-20T09:32:19;0.10;;;0.10;;
49043;SDS011;34860;48.066;14.124;2023-12-20T09:35:08;0.90;;;0.13;;
49043;SDS011;34860;48.066;14.124;2023-12-20T09:37:58;0.52;;;0.10;;
49043;SDS011;34860;48.066;14.124;2023-12-20T09:40:49;0.85;;;0.40;;
49043;SDS011;34860;48.066;14.124;2023-12-20T09:43:39;1.08;;;0.25;;
49043;SDS011;34860;48.066;14.124;2023-12-20T09:46:30;0.00;;;0.00;;
49043;SDS011;34860;48.066;14.124;2023-12-20T09:49:20;0.10;;;0.00;;
49043;SDS011;34860;48.066;14.124;2023-12-20T09:52:08;0.35;;;0.10;;
49043;SDS011;34860;48.066;14.124;2023-12-20T09:54:59;0.38;;;0.20;;
49043;SDS011;34860;48.066;14.124;2023-12-20T09:57:51;0.57;;;0.10;;
49043;SDS011;34860;48.066;14.124;2023-12-20T10:00:42;0.05;;;0.03;;
49043;SDS011;34860;48.066;14.124;2023-12-20T10:03:30;0.00;;;0.00;;
49043;SDS011;34860;48.066;14.124;2023-12-20T10:06:19;0.10;;;0.00;;
49043;SDS011;34860;48.066;14.124;2023-12-20T10:09:07;0.10;;;0.00;;
49043;SDS011;34860;48.066;14.124;2023-12-20T10:11:56;0.10;;;0.00;;
49043;SDS011;34860;48.066;14.124;2023-12-20T10:14:45;0.00;;;0.00;;
49043;SDS011;34860;48.066;14.124;2023-12-20T10:17:35;0.43;;;0.10;;
49043;SDS011;34860;48.066;14.124;2023-12-20T10:20:23;0.10;;;0.10;;
49043;SDS011;34860;48.066;14.124;2023-12-20T10:23:11;0.10;;;0.10;;
49043;SDS011;34860;48.066;14.124;2023-12-20T10:26:00;0.20;;;0.10;;
49043;SDS011;34860;48.066;14.124;2023-12-20T10:28:49;0.30;;;0.00;;
49043;SDS011;34860;48.066;14.124;2023-12-20T10:31:38;0.00;;;0.00;;
49043;SDS011;34860;48.066;14.124;2023-12-20T10:34:28;0.00;;;0.00;;
49043;SDS011;34860;48.066;14.124;2023-12-20T10:37:16;0.00;;;0.00;;
49043;SDS011;34860;48.066;14.124;2023-12-20T10:40:05;0.10;;;0.00;;
49043;SDS011;34860;48.066;14.124;2023-12-20T10:42:54;0.47;;;0.00;;
49043;SDS011;34860;48.066;14.124;2023-12-20T10:45:44;0.75;;;0.10;;
49043;SDS011;34860;48.066;14.124;2023-12-20T10:48:33;0.00;;;0.00;;
49043;SDS011;34860;48.066;14.124;2023-12-20T10:51:27;0.00;;;0.00;;
49043;SDS011;34860;48.066;14.124;2023-12-20T10:54:16;0.10;;;0.00;;
49043;SDS011;34860;48.066;14.124;2023-12-20T10:57:05;0.35;;;0.10;;
49043;SDS011;34860;48.066;14.124;2023-12-20T10:59:54;0.00;;;0.00;;
49043;SDS011;34860;48.066;14.124;2023-12-20T11:02:49;0.00;;;0.00;;
49043;SDS011;34860;48.066;14.124;2023-12-20T11:05:38;0.00;;;0.00;;
49043;SDS011;34860;48.066;14.124;2023-12-20T11:08:38;0.13;;;0.08;;
49043;SDS011;34860;48.066;14.124;2023-12-20T11:11:34;0.75;;;0.30;;
49043;SDS011;34860;48.066;14.124;2023-12-20T11:14:31;0.20;;;0.00;;
49043;SDS011;34860;48.066;14.124;2023-12-20T11:17:27;0.05;;;0.00;;
49043;SDS011;34860;48.066;14.124;2023-12-20T11:20:18;0.00;;;0.00;;
49043;SDS011;34860;48.066;14.124;2023-12-20T11:23:07;0.00;;;0.00;;
49043;SDS011;34860;48.066;14.124;2023-12-20T11:26:00;0.00;;;0.00;;
49043;SDS011;34860;48.066;14.124;2023-12-20T11:28:49;0.00;;;0.00;;
49043;SDS011;34860;48.066;14.124;2023-12-20T11:31:39;0.05;;;0.03;;
49043;SDS011;34860;48.066;14.124;2023-12-20T11:34:28;0.10;;;0.00;;
49043;SDS011;34860;48.066;14.124;2023-12-20T11:37:20;5.32;;;0.85;;
49043;SDS011;34860;48.066;14.124;2023-12-20T11:40:14;0.00;;;0.00;;
49043;SDS011;34860;48.066;14.124;2023-12-20T11:43:08;0.00;;;0.00;;
49043;SDS011;34860;48.066;14.124;2023-12-20T11:46:02;0.00;;;0.00;;
49043;SDS011;34860;48.066;14.124;2023-12-20T11:48:51;0.00;;;0.00;;
49043;SDS011;34860;48.066;14.124;2023-12-20T11:51:44;0.00;;;0.00;;
49043;SDS011;34860;48.066;14.124;2023-12-20T11:54:32;0.00;;;0.00;;
49043;SDS011;34860;48.066;14.124;2023-12-20T11:57:21;0.00;;;0.00;;
49043;SDS011;34860;48.066;14.124;2023-12-20T12:00:14;0.25;;;0.00;;
49043;SDS011;34860;48.066;14.124;2023-12-20T12:03:03;0.00;;;0.00;;
49043;SDS011;34860;48.066;14.124;2023-12-20T12:05:51;0.00;;;0.00;;
49043;SDS011;34860;48.066;14.124;2023-12-20T12:08:39;0.15;;;0.00;;
49043;SDS011;34860;48.066;14.124;2023-12-20T12:11:29;0.00;;;0.00;;
49043;SDS011;34860;48.066;14.124;2023-12-20T12:14:17;0.10;;;0.00;;
49043;SDS011;34860;48.066;14.124;2023-12-20T12:17:11;0.32;;;0.00;;
49043;SDS011;34860;48.066;14.124;2023-12-20T12:20:02;0.20;;;0.00;;
49043;SDS011;34860;48.066;14.124;2023-12-20T12:22:58;0.00;;;0.00;;
49043;SDS011;34860;48.066;14.124;2023-12-20T12:25:51;0.10;;;0.00;;
49043;SDS011;34860;48.066;14.124;2023-12-20T12:28:39;0.00;;;0.00;;
49043;SDS011;34860;48.066;14.124;2023-12-20T12:31:28;0.00;;;0.00;;
49043;SDS011;34860;48.066;14.124;2023-12-20T12:34:22;0.28;;;0.05;;
49043;SDS011;34860;48.066;14.124;2023-12-20T12:37:14;3.22;;;0.60;;
49043;SDS011;34860;48.066;14.124;2023-12-20T12:40:03;1.35;;;0.10;;
49043;SDS011;34860;48.066;14.124;2023-12-20T12:42:52;0.43;;;0.20;;
49043;SDS011;34860;48.066;14.124;2023-12-20T12:45:40;0.20;;;0.10;;
49043;SDS011;34860;48.066;14.124;2023-12-20T12:48:28;0.10;;;0.00;;
49043;SDS011;34860;48.066;14.124;2023-12-20T12:51:19;0.25;;;0.00;;
49043;SDS011;34860;48.066;14.124;2023-12-20T12:54:07;0.25;;;0.10;;
49043;SDS011;34860;48.066;14.124;2023-12-20T12:56:56;0.80;;;0.00;;
49043;SDS011;34860;48.066;14.124;2023-12-20T12:59:47;0.00;;;0.00;;
49043;SDS011;34860;48.066;14.124;2023-12-20T13:02:41;0.03;;;0.00;;
49043;SDS011;34860;48.066;14.124;2023-12-20T13:05:30;0.00;;;0.00;;
49043;SDS011;34860;48.066;14.124;2023-12-20T13:08:22;0.10;;;0.00;;
49043;SDS011;34860;48.066;14.124;2023-12-20T13:11:11;1.55;;;0.30;;
49043;SDS011;34860;48.066;14.124;2023-12-20T13:13:59;0.30;;;0.03;;
49043;SDS011;34860;48.066;14.124;2023-12-20T13:16:47;0.03;;;0.00;;
49043;SDS011;34860;48.066;14.124;2023-12-20T13:19:37;0.00;;;0.00;;
49043;SDS011;34860;48.066;14.124;2023-12-20T13:22:25;0.10;;;0.00;;
49043;SDS011;34860;48.066;14.124;2023-12-20T13:25:14;0.10;;;0.00;;
49043;SDS011;34860;48.066;14.124;2023-12-20T13:28:04;0.00;;;0.00;;
49043;SDS011;34860;48.066;14.124;2023-12-20T13:30:53;0.00;;;0.00;;
49043;SDS011;34860;48.066;14.124;2023-12-20T13:33:42;0.00;;;0.00;;
49043;SDS011;34860;48.066;14.124;2023-12-20T13:36:30;5.03;;;0.10;;
49043;SDS011;34860;48.066;14.124;2023-12-20T13:39:18;0.10;;;0.00;;
49043;SDS011;34860;48.066;14.124;2023-12-20T13:42:07;5.18;;;0.17;;
49043;SDS011;34860;48.066;14.124;2023-12-20T13:44:57;0.17;;;0.10;;
49043;SDS011;34860;48.066;14.124;2023-12-20T13:47:45;0.75;;;0.00;;
49043;SDS011;34860;48.066;14.124;2023-12-20T13:50:33;0.17;;;0.10;;
49043;SDS011;34860;48.066;14.124;2023-12-20T13:53:24;0.10;;;0.00;;
49043;SDS011;34860;48.066;14.124;2023-12-20T13:56:15;0.03;;;0.00;;
49043;SDS011;34860;48.066;14.124;2023-12-20T13:59:04;0.00;;;0.00;;
49043;SDS011;34860;48.066;14.124;2023-12-20T14:01:55;0.43;;;0.00;;
49043;SDS011;34860;48.066;14.124;2023-12-20T14:04:47;0.20;;;0.00;;
49043;SDS011;34860;48.066;14.124;2023-12-20T14:07:35;0.63;;;0.10;;
49043;SDS011;34860;48.066;14.124;2023-12-20T14:10:24;0.20;;;0.00;;
49043;SDS011;34860;48.066;14.124;2023-12-20T14:13:16;0.30;;;0.00;;
49043;SDS011;34860;48.066;14.124;2023-12-20T14:16:06;0.10;;;0.00;;
49043;SDS011;34860;48.066;14.124;2023-12-20T14:18:57;0.15;;;0.10;;
49043;SDS011;34860;48.066;14.124;2023-12-20T14:21:45;0.00;;;0.00;;
49043;SDS011;34860;48.066;14.124;2023-12-20T14:24:33;1.60;;;0.00;;
49043;SDS011;34860;48.066;14.124;2023-12-20T14:27:26;0.15;;;0.08;;
49043;SDS011;34860;48.066;14.124;2023-12-20T14:30:15;0.10;;;0.10;;
49043;SDS011;34860;48.066;14.124;2023-12-20T14:33:08;0.10;;;0.00;;
49043;SDS011;34860;48.066;14.124;2023-12-20T14:35:57;0.25;;;0.10;;
49043;SDS011;34860;48.066;14.124;2023-12-20T14:38:46;3.20;;;0.43;;
49043;SDS011;34860;48.066;14.124;2023-12-20T14:41:36;0.30;;;0.10;;
49043;SDS011;34860;48.066;14.124;2023-12-20T14:44:25;0.60;;;0.10;;
49043;SDS011;34860;48.066;14.124;2023-12-20T14:47:13;6.55;;;0.10;;
49043;SDS011;34860;48.066;14.124;2023-12-20T14:50:03;0.20;;;0.10;;
49043;SDS011;34860;48.066;14.124;2023-12-20T14:52:53;0.00;;;0.00;;
49043;SDS011;34860;48.066;14.124;2023-12-20T14:55:45;0.40;;;0.10;;
49043;SDS011;34860;48.066;14.124;2023-12-20T14:58:33;0.40;;;0.10;;
49043;SDS011;34860;48.066;14.124;2023-12-20T15:01:26;0.08;;;0.00;;
49043;SDS011;34860;48.066;14.124;2023-12-20T15:04:14;2.38;;;0.10;;
49043;SDS011;34860;48.066;14.124;2023-12-20T15:07:06;0.20;;;0.05;;
49043;SDS011;34860;48.066;14.124;2023-12-20T15:09:55;1.20;;;0.20;;
49043;SDS011;34860;48.066;14.124;2023-12-20T15:12:47;0.05;;;0.03;;
49043;SDS011;34860;48.066;14.124;2023-12-20T15:15:36;0.17;;;0.08;;
49043;SDS011;34860;48.066;14.124;2023-12-20T15:18:24;1.20;;;0.28;;
49043;SDS011;34860;48.066;14.124;2023-12-20T15:21:12;0.00;;;0.00;;
49043;SDS011;34860;48.066;14.124;2023-12-20T15:24:04;0.20;;;0.00;;
49043;SDS011;34860;48.066;14.124;2023-12-20T15:26:59;0.25;;;0.10;;
49043;SDS011;34860;48.066;14.124;2023-12-20T15:29:48;0.00;;;0.00;;
49043;SDS011;34860;48.066;14.124;2023-12-20T15:32:37;0.32;;;0.10;;
49043;SDS011;34860;48.066;14.124;2023-12-20T15:35:27;2.10;;;0.30;;
49043;SDS011;34860;48.066;14.124;2023-12-20T15:38:15;0.08;;;0.00;;
49043;SDS011;34860;48.066;14.124;2023-12-20T15:41:10;0.25;;;0.10;;
49043;SDS011;34860;48.066;14.124;2023-12-20T15:44:06;0.20;;;0.20;;
49043;SDS011;34860;48.066;14.124;2023-12-20T15:46:54;0.20;;;0.10;;
49043;SDS011;34860;48.066;14.124;2023-12-20T15:49:45;0.45;;;0.05;;
49043;SDS011;34860;48.066;14.124;2023-12-20T15:52:37;0.40;;;0.10;;
49043;SDS011;34860;48.066;14.124;2023-12-20T15:55:25;0.22;;;0.10;;
49043;SDS011;34860;48.066;14.124;2023-12-20T15:58:15;0.10;;;0.05;;
49043;SDS011;34860;48.066;14.124;2023-12-20T16:01:03;0.00;;;0.00;;
49043;SDS011;34860;48.066;14.124;2023-12-20T16:03:51;0.25;;;0.10;;
49043;SDS011;34860;48.066;14.124;2023-12-20T16:06:43;0.30;;;0.10;;
49043;SDS011;34860;48.066;14.124;2023-12-20T16:09:31;0.60;;;0.15;;
49043;SDS011;34860;48.066;14.124;2023-12-20T16:12:19;1.45;;;0.25;;
49043;SDS011;34860;48.066;14.124;2023-12-20T16:15:09;0.55;;;0.10;;
49043;SDS011;34860;48.066;14.124;2023-12-20T16:18:01;0.45;;;0.08;;
49043;SDS011;34860;48.066;14.124;2023-12-20T16:20:49;0.68;;;0.10;;
49043;SDS011;34860;48.066;14.124;2023-12-20T16:23:37;0.68;;;0.22;;
49043;SDS011;34860;48.066;14.124;2023-12-20T16:26:29;0.20;;;0.20;;
49043;SDS011;34860;48.066;14.124;2023-12-20T16:29:17;0.17;;;0.10;;
49043;SDS011;34860;48.066;14.124;2023-12-20T16:32:10;0.28;;;0.10;;
49043;SDS011;34860;48.066;14.124;2023-12-20T16:34:58;0.15;;;0.13;;
49043;SDS011;34860;48.066;14.124;2023-12-20T16:37:48;0.40;;;0.13;;
49043;SDS011;34860;48.066;14.124;2023-12-20T16:40:36;0.22;;;0.20;;
49043;SDS011;34860;48.066;14.124;2023-12-20T16:43:30;0.63;;;0.13;;
49043;SDS011;34860;48.066;14.124;2023-12-20T16:46:18;0.47;;;0.22;;